首页
METAR-TAF:

METAR-TAF

机场 :

杭州萧山国际机场

杭州, 中华人民共和国

纬度: 30-14N, 经度: 120-10E, 海拔: 43米

当前天气观测

该预报发布于29分钟前的02:00 UTC
风速8节,风向南转南东
温度 31°C
湿度 71%
气压 1004 hPa
能见度10公里或以上
1500米以下无云,无积雨云

METAR: ZSHC 190200Z 16004MPS CAVOK 31/25 Q1004 NOSIG

时间: 10:29 (02:29 UTC)

预报

该预报发布于7小时和21分钟前的19:08 UTC
预报有效从19日的 00点(UTC)到 19日的 24点(UTC)
风速10节,风向东南
能見度: 6000

TAF: ZSHC 181908Z 1900/1924 13005MPS 6000 NSC TX35/1906Z TN26/1921Z

超过4000个机场的气象观测和天气预报(METAR&TAF报告)。

可查询的气象台以黄色和红色小点在地图上表示。

将鼠标移到小点上方,可查看气象台名称。

然后点击查看天气观测和预报。

如需切换地图:点击带黑十字的绿色按钮放大地图;点击带横线的绿色按钮缩小地图;或者点击绿色箭头查看邻近地区的地图。


METAR-TAF: